Time;durP1;ratioP1;P1;durP2;ratioP2;P2;SDS_P1;SDS_P2;PMS_P1;PMS_P2;Temp;Humidity;BMP_temperature;BMP_pressure;BME280_temperature;BME280_humidity;BME280_pressure;Samples;Min_cycle;Max_cycle;Signal;HPM_P1;HPM_P2
2021/12/19 00:00:29;;;;;;;26.50;9.95;;;6.90;99.90;;;;;;5003040;28;20052;-89
2021/12/19 00:10:53;;;;;;;25.25;8.95;;;6.90;99.90;;;;;;5019116;28;20041;-91
2021/12/19 00:13:19;;;;;;;23.85;8.55;;;6.90;99.90;;;;;;5002976;28;20042;-93
2021/12/19 00:15:45;;;;;;;24.33;8.43;;;7.10;99.90;;;;;;5018913;28;20053;-92
2021/12/19 00:18:10;;;;;;;28.67;9.43;;;6.90;99.90;;;;;;5019093;28;20061;-91
2021/12/19 00:20:36;;;;;;;23.15;9.05;;;7.00;99.90;;;;;;5018358;28;20050;-90
2021/12/19 00:23:02;;;;;;;18.08;8.13;;;7.20;99.90;;;;;;5002660;28;20502;-92
2021/12/19 00:25:28;;;;;;;19.50;7.80;;;7.10;99.90;;;;;;5002428;28;20053;-90
2021/12/19 00:27:53;;;;;;;20.27;7.85;;;6.90;99.90;;;;;;5002807;28;20482;-92
2021/12/19 00:30:19;;;;;;;16.63;6.90;;;6.90;99.90;;;;;;5022706;28;20054;-93
2021/12/19 00:32:45;;;;;;;14.55;6.82;;;6.90;99.90;;;;;;5020449;28;20057;-92
2021/12/19 00:35:11;;;;;;;17.42;7.05;;;7.00;99.90;;;;;;5038934;28;20509;-91
2021/12/19 00:37:36;;;;;;;17.88;6.93;;;6.90;99.90;;;;;;5038272;28;20060;-92
2021/12/19 00:40:04;;;;;;;25.58;8.00;;;6.90;99.90;;;;;;5038542;28;20083;-91
2021/12/19 00:42:35;;;;;;;15.48;7.25;;;6.90;99.90;;;;;;5038473;28;20095;-90
2021/12/19 00:45:15;;;;;;;;;;;6.90;99.90;;;;;;5022002;28;20048;-90
2021/12/19 00:47:45;;;;;;;17.63;6.53;;;6.90;99.90;;;;;;5021945;28;19920;-92
2021/12/19 00:50:12;;;;;;;21.42;7.30;;;6.90;99.90;;;;;;5037972;28;20044;-90
2021/12/19 00:52:39;;;;;;;22.15;7.05;;;7.10;99.90;;;;;;5038432;28;20056;-90
2021/12/19 00:55:25;;;;;;;21.20;7.47;;;7.00;99.90;;;;;;5038337;28;20421;-90
2021/12/19 00:57:51;;;;;;;20.17;6.85;;;7.00;99.90;;;;;;5021421;28;20418;-90
2021/12/19 01:00:20;;;;;;;17.98;6.72;;;6.90;99.90;;;;;;5037871;28;20048;-91
2021/12/19 01:02:47;;;;;;;21.58;7.05;;;6.90;99.90;;;;;;5021482;28;20036;-91
2021/12/19 01:05:13;;;;;;;19.08;6.90;;;6.90;99.90;;;;;;5038170;28;20042;-92
2021/12/19 01:07:39;;;;;;;22.15;7.30;;;7.00;99.90;;;;;;5038178;28;20098;-92
2021/12/19 01:10:07;;;;;;;20.17;6.97;;;6.90;99.90;;;;;;5037520;28;20201;-92
2021/12/19 01:12:36;;;;;;;23.05;7.20;;;6.90;99.90;;;;;;5037577;28;20049;-92
2021/12/19 01:15:04;;;;;;;16.80;6.05;;;7.00;99.90;;;;;;5021385;28;20087;-89
2021/12/19 01:17:29;;;;;;;24.40;7.32;;;7.00;99.90;;;;;;5037930;28;20041;-93
2021/12/19 01:19:55;;;;;;;16.85;6.60;;;7.00;99.90;;;;;;5037975;28;20071;-92
2021/12/19 01:22:21;;;;;;;14.80;5.90;;;7.00;99.90;;;;;;5037935;28;20076;-91
2021/12/19 01:24:46;;;;;;;19.23;6.80;;;7.00;99.90;;;;;;5037770;28;20049;-93
2021/12/19 01:27:12;;;;;;;19.80;6.90;;;7.00;99.90;;;;;;5037049;28;20059;-92
2021/12/19 01:29:38;;;;;;;16.50;6.43;;;7.00;99.90;;;;;;5036237;28;20045;-91
2021/12/19 01:32:04;;;;;;;18.42;6.55;;;7.00;99.90;;;;;;5037434;28;20089;-91
2021/12/19 01:34:29;;;;;;;20.85;6.95;;;7.00;99.90;;;;;;5036762;28;20525;-91
2021/12/19 01:36:55;;;;;;;10.82;5.63;;;7.00;99.90;;;;;;5037433;28;20044;-93
2021/12/19 01:39:21;;;;;;;11.68;5.15;;;7.10;99.90;;;;;;5037130;28;20123;-94
2021/12/19 01:41:53;;;;;;;12.98;4.88;;;7.00;99.90;;;;;;5037453;28;20047;-92
2021/12/19 01:44:20;;;;;;;14.15;5.68;;;6.90;99.90;;;;;;5020949;28;20053;-92
2021/12/19 01:46:46;;;;;;;11.38;5.45;;;7.20;99.90;;;;;;5037362;28;20045;-90
2021/12/19 01:49:17;;;;;;;13.02;5.55;;;7.00;99.90;;;;;;5020573;28;20048;-91
2021/12/19 01:51:43;;;;;;;10.63;4.75;;;7.00;99.90;;;;;;5036987;28;20086;-93
2021/12/19 01:54:10;;;;;;;10.73;4.90;;;7.20;99.90;;;;;;5037345;28;20128;-91
2021/12/19 01:56:36;;;;;;;12.57;5.32;;;7.00;99.90;;;;;;5020334;28;20049;-92
2021/12/19 01:59:02;;;;;;;12.93;4.15;;;7.10;99.90;;;;;;5036832;28;20132;-91
2021/12/19 02:01:27;;;;;;;9.88;4.22;;;7.20;99.90;;;;;;5037369;28;20129;-96
2021/12/19 02:03:53;;;;;;;9.48;4.88;;;7.00;99.90;;;;;;5037100;28;20086;-90
2021/12/19 02:06:19;;;;;;;7.00;3.45;;;7.00;99.90;;;;;;5020783;28;20067;-90
2021/12/19 02:08:48;;;;;;;6.88;3.22;;;7.00;99.90;;;;;;5036489;28;20068;-91
2021/12/19 02:11:15;;;;;;;5.78;2.92;;;7.20;99.90;;;;;;5036200;28;20049;-90
2021/12/19 02:13:41;;;;;;;3.38;2.25;;;7.10;99.90;;;;;;5037172;28;20050;-91
2021/12/19 02:16:07;;;;;;;5.65;2.38;;;6.90;99.90;;;;;;5036866;28;20497;-90
2021/12/19 02:18:33;;;;;;;2.67;1.90;;;6.80;99.90;;;;;;5020103;28;20126;-93
2021/12/19 02:20:59;;;;;;;5.43;2.50;;;6.90;99.90;;;;;;5020364;28;20052;-92
2021/12/19 02:23:28;;;;;;;5.90;2.22;;;6.80;99.90;;;;;;5036309;28;20494;-93
2021/12/19 02:25:55;;;;;;;5.10;2.30;;;6.90;99.90;;;;;;5036229;28;20057;-91
2021/12/19 02:28:22;;;;;;;5.10;2.50;;;7.00;99.90;;;;;;5036758;28;20411;-92
2021/12/19 02:30:49;;;;;;;5.68;2.20;;;6.90;99.90;;;;;;5007678;28;20062;-91
2021/12/19 02:33:20;;;;;;;5.40;1.85;;;6.90;99.90;;;;;;5000639;28;20128;-92
2021/12/19 02:36:01;;;;;;;2.97;1.58;;;6.90;99.90;;;;;;5016861;28;20048;-90
2021/12/19 02:49:28;;;;;;;4.78;1.55;;;6.90;99.90;;;;;;5016732;28;20502;-92
2021/12/19 02:51:55;;;;;;;3.90;1.27;;;6.80;99.90;;;;;;5016541;28;20042;-94
2021/12/19 02:54:23;;;;;;;3.58;1.70;;;6.70;99.90;;;;;;5016766;28;20134;-96
2021/12/19 02:56:50;;;;;;;7.30;2.28;;;6.80;99.90;;;;;;5000050;28;20041;-91
2021/12/19 02:59:16;;;;;;;5.25;1.65;;;6.80;99.90;;;;;;4999983;28;20034;-90
2021/12/19 03:01:44;;;;;;;5.63;2.20;;;7.00;99.90;;;;;;5032975;28;20053;-91
2021/12/19 03:04:10;;;;;;;5.82;2.25;;;6.80;99.90;;;;;;5017575;28;20045;-92
2021/12/19 03:06:41;;;;;;;6.80;2.08;;;6.80;99.90;;;;;;5033283;28;20137;-92
2021/12/19 03:09:09;;;;;;;6.30;1.83;;;6.80;99.90;;;;;;5016714;28;20042;-92
2021/12/19 03:19:58;;;;;;;4.32;1.40;;;6.70;99.90;;;;;;5016435;28;20056;-94
2021/12/19 03:22:23;;;;;;;2.13;1.10;;;6.60;99.90;;;;;;5016431;28;20053;-91
2021/12/19 03:24:49;;;;;;;3.83;1.30;;;6.60;99.90;;;;;;5016205;28;20049;-91
2021/12/19 03:27:15;;;;;;;2.78;1.25;;;6.60;99.90;;;;;;5000289;28;20049;-91
2021/12/19 03:29:40;;;;;;;2.90;1.20;;;6.60;99.90;;;;;;5016529;28;20446;-93
2021/12/19 03:32:06;;;;;;;3.53;1.27;;;6.60;99.90;;;;;;5035982;28;20053;-91
2021/12/19 03:34:34;;;;;;;1.75;1.13;;;6.70;99.90;;;;;;5035661;28;20045;-91
2021/12/19 03:37:00;;;;;;;4.13;1.42;;;6.70;99.90;;;;;;5036031;28;20041;-92
2021/12/19 03:39:33;;;;;;;4.10;1.25;;;6.80;99.90;;;;;;5035944;28;20053;-90
2021/12/19 03:42:17;;;;;;;;;;;6.60;99.90;;;;;;5038471;28;20128;-90
2021/12/19 03:44:43;;;;;;;4.88;1.20;;;6.70;99.90;;;;;;5035504;28;20023;-90
2021/12/19 03:47:08;;;;;;;3.38;1.27;;;6.70;99.90;;;;;;5018541;28;20091;-91
2021/12/19 03:49:34;;;;;;;2.95;1.27;;;6.70;99.90;;;;;;5035507;28;20443;-89
2021/12/19 03:51:59;;;;;;;3.88;1.35;;;6.70;99.90;;;;;;5035227;28;20091;-91
2021/12/19 03:54:25;;;;;;;4.75;1.30;;;6.70;99.90;;;;;;5018768;28;20083;-90
2021/12/19 03:56:51;;;;;;;2.40;1.25;;;6.70;99.90;;;;;;5037786;28;20052;-91
2021/12/19 03:59:16;;;;;;;3.05;1.20;;;6.60;99.90;;;;;;5022760;28;20060;-91
2021/12/19 04:01:47;;;;;;;3.78;1.20;;;6.60;99.90;;;;;;5039251;28;20048;-89
2021/12/19 04:04:13;;;;;;;6.63;1.65;;;6.60;99.90;;;;;;5039402;28;20056;-90
2021/12/19 04:06:38;;;;;;;6.88;1.80;;;6.60;99.90;;;;;;5038935;28;20110;-94
2021/12/19 04:09:04;;;;;;;6.20;1.60;;;6.60;99.90;;;;;;5038799;28;20049;-90
2021/12/19 04:11:50;;;;;;;8.35;1.88;;;6.60;99.90;;;;;;5023066;28;20068;-91
2021/12/19 04:14:15;;;;;;;6.00;1.88;;;6.40;99.90;;;;;;5022335;28;20052;-92
2021/12/19 04:16:43;;;;;;;7.93;1.88;;;6.50;99.90;;;;;;5038981;28;20045;-92
2021/12/19 04:19:09;;;;;;;6.65;1.50;;;6.50;99.90;;;;;;5038947;28;20456;-92
2021/12/19 04:21:35;;;;;;;7.43;2.03;;;6.50;99.90;;;;;;5038640;28;20044;-90
2021/12/19 04:24:01;;;;;;;5.63;2.17;;;6.50;99.90;;;;;;5022350;28;20376;-90
2021/12/19 04:26:26;;;;;;;6.38;2.38;;;6.50;99.90;;;;;;5038489;28;20510;-91
2021/12/19 04:28:52;;;;;;;8.00;2.40;;;6.70;99.90;;;;;;5038805;28;20128;-90
2021/12/19 04:31:18;;;;;;;6.35;2.15;;;6.60;99.90;;;;;;5019509;28;20057;-91
2021/12/19 04:33:43;;;;;;;5.28;2.30;;;6.50;99.90;;;;;;5016990;28;20484;-90
2021/12/19 04:36:12;;;;;;;10.50;2.50;;;6.50;99.90;;;;;;5018791;28;20467;-91
2021/12/19 04:39:08;;;;;;;6.60;2.20;;;6.50;99.90;;;;;;5018705;28;20505;-91
2021/12/19 04:55:21;;;;;;;1.75;0.90;;;6.40;99.90;;;;;;5018338;28;20057;-90
2021/12/19 04:57:58;;;;;;;1.02;0.63;;;6.40;99.90;;;;;;5018152;28;20056;-93
2021/12/19 05:00:38;;;;;;;1.50;0.80;;;6.30;99.90;;;;;;5002220;28;20037;-92
2021/12/19 05:03:18;;;;;;;2.03;0.70;;;6.30;99.90;;;;;;5001736;28;20064;-91
2021/12/19 05:06:02;;;;;;;2.47;0.60;;;6.30;99.90;;;;;;5001330;28;20045;-90
2021/12/19 05:14:07;;;;;;;1.60;0.60;;;6.20;99.90;;;;;;5017740;28;20049;-89
2021/12/19 05:16:36;;;;;;;3.05;0.73;;;6.20;99.90;;;;;;5017683;28;20476;-90
2021/12/19 05:19:07;;;;;;;3.72;0.70;;;6.50;99.90;;;;;;5017635;28;20103;-90
2021/12/19 05:21:36;;;;;;;2.17;0.80;;;6.30;99.90;;;;;;5017450;28;20182;-90
2021/12/19 05:24:19;;;;;;;6.60;0.90;;;6.30;99.90;;;;;;5001463;28;20053;-90
2021/12/19 05:26:44;;;;;;;3.97;0.80;;;6.20;99.90;;;;;;5017673;28;20167;-90
2021/12/19 05:29:10;;;;;;;4.25;0.80;;;6.40;99.90;;;;;;5017629;28;20646;-90
2021/12/19 05:31:37;;;;;;;3.55;0.68;;;6.30;99.90;;;;;;5015338;28;20045;-92
2021/12/19 05:34:03;;;;;;;2.97;0.90;;;6.30;99.90;;;;;;5037366;28;20059;-90
2021/12/19 05:47:08;;;;;;;1.10;0.63;;;6.30;99.90;;;;;;5036881;28;20060;-91
2021/12/19 05:49:34;;;;;;;2.53;0.80;;;6.40;99.90;;;;;;5036661;28;20045;-91
2021/12/19 05:52:00;;;;;;;3.05;0.85;;;6.30;99.90;;;;;;5036881;28;20465;-90
2021/12/19 05:54:27;;;;;;;6.97;1.10;;;6.30;99.90;;;;;;5020514;28;20442;-92
2021/12/19 05:56:53;;;;;;;1.75;0.73;;;6.30;99.90;;;;;;5036692;28;20152;-90
2021/12/19 05:59:19;;;;;;;4.43;1.17;;;6.30;99.90;;;;;;5036742;28;20135;-91
2021/12/19 06:01:46;;;;;;;4.32;1.13;;;6.30;99.90;;;;;;5036733;28;20036;-90
2021/12/19 06:04:12;;;;;;;4.18;1.52;;;6.30;99.90;;;;;;5036146;28;20053;-90
2021/12/19 06:06:38;;;;;;;119.68;8.20;;;6.40;99.90;;;;;;5036315;28;20457;-89
2021/12/19 06:09:04;;;;;;;6.75;1.52;;;6.40;99.90;;;;;;5036551;28;20037;-91
2021/12/19 06:11:30;;;;;;;5.13;1.48;;;6.40;99.90;;;;;;5036788;28;20052;-90
2021/12/19 06:13:55;;;;;;;8.40;1.58;;;6.40;99.90;;;;;;5036493;28;20045;-89
2021/12/19 06:16:21;;;;;;;4.43;1.63;;;6.60;99.90;;;;;;5036839;28;20038;-90
2021/12/19 06:18:47;;;;;;;7.38;2.17;;;6.40;99.90;;;;;;5036123;28;20044;-91
2021/12/19 06:21:12;;;;;;;6.28;2.42;;;6.40;99.90;;;;;;5036287;28;20045;-88
2021/12/19 06:23:39;;;;;;;12.93;3.38;;;6.40;99.90;;;;;;5036371;28;20087;-89
2021/12/19 06:26:05;;;;;;;9.25;2.85;;;6.40;99.90;;;;;;5035987;28;20506;-93
2021/12/19 06:28:30;;;;;;;11.10;3.85;;;6.40;99.90;;;;;;5036171;28;20056;-92
2021/12/19 06:30:56;;;;;;;15.05;3.80;;;6.40;99.90;;;;;;5036013;28;20057;-90
2021/12/19 06:33:22;;;;;;;16.33;4.13;;;6.50;99.90;;;;;;5035816;28;20069;-94
2021/12/19 06:35:48;;;;;;;18.08;4.25;;;6.50;99.90;;;;;;5036076;28;20044;-90
2021/12/19 06:38:15;;;;;;;11.70;4.25;;;6.40;99.90;;;;;;5036146;28;20045;-90
2021/12/19 06:40:41;;;;;;;11.30;3.70;;;6.50;99.90;;;;;;5036207;28;20055;-90
2021/12/19 06:43:07;;;;;;;12.10;3.63;;;6.50;99.90;;;;;;5019110;28;20057;-90
2021/12/19 06:45:33;;;;;;;11.90;4.40;;;6.50;99.90;;;;;;5035688;28;20564;-90
2021/12/19 06:47:59;;;;;;;17.35;4.75;;;6.50;99.90;;;;;;5019657;28;20045;-92
2021/12/19 06:50:25;;;;;;;14.75;4.57;;;6.50;99.90;;;;;;5035453;28;20055;-90
2021/12/19 06:52:51;;;;;;;17.30;4.53;;;6.50;99.90;;;;;;5019351;28;20106;-91
2021/12/19 06:55:18;;;;;;;21.58;5.00;;;6.50;99.90;;;;;;5035923;28;20490;-90
2021/12/19 06:57:44;;;;;;;19.30;5.13;;;6.50;99.90;;;;;;5036056;28;20091;-91
2021/12/19 07:00:16;;;;;;;17.83;4.78;;;6.50;99.90;;;;;;5035677;28;20051;-90
2021/12/19 07:02:42;;;;;;;15.25;4.88;;;6.60;99.90;;;;;;5052204;28;20049;-90
2021/12/19 07:05:08;;;;;;;19.33;5.55;;;6.60;99.90;;;;;;5035633;28;20131;-90
2021/12/19 07:07:34;;;;;;;22.52;5.97;;;6.60;99.90;;;;;;5035819;28;20037;-90
2021/12/19 07:10:00;;;;;;;19.05;5.93;;;6.50;99.90;;;;;;5035723;28;20052;-90
2021/12/19 07:12:26;;;;;;;26.10;6.90;;;6.60;99.90;;;;;;5035647;28;20063;-90
2021/12/19 07:14:56;;;;;;;27.75;6.53;;;6.60;99.90;;;;;;5035997;28;20411;-90
2021/12/19 07:17:22;;;;;;;29.85;7.05;;;6.60;99.90;;;;;;5019324;28;20057;-90
2021/12/19 07:19:48;;;;;;;24.42;6.65;;;6.60;99.90;;;;;;5035968;28;20422;-90
2021/12/19 07:22:14;;;;;;;32.22;7.72;;;6.60;99.90;;;;;;5035093;28;20041;-90
2021/12/19 07:24:40;;;;;;;27.30;8.35;;;6.70;99.90;;;;;;5035564;28;20037;-91
2021/12/19 07:27:05;;;;;;;21.73;6.88;;;6.60;99.90;;;;;;5035661;28;20041;-94
2021/12/19 07:29:31;;;;;;;19.23;6.85;;;6.60;99.90;;;;;;5018798;28;20052;-90
2021/12/19 07:31:58;;;;;;;24.55;6.35;;;6.60;99.90;;;;;;5020958;28;20088;-92
2021/12/19 07:34:31;;;;;;;20.90;6.63;;;6.60;99.90;;;;;;5023012;28;20135;-89
2021/12/19 07:36:57;;;;;;;16.65;4.63;;;6.60;99.90;;;;;;5039596;28;20140;-90
2021/12/19 07:42:06;;;;;;;26.52;5.10;;;6.60;99.90;;;;;;5018988;28;20054;-90
2021/12/19 07:44:33;;;;;;;13.38;5.03;;;6.60;99.90;;;;;;5019671;28;20055;-90
2021/12/19 07:46:59;;;;;;;20.85;4.60;;;6.60;99.90;;;;;;5019605;28;20136;-90
2021/12/19 07:49:25;;;;;;;22.95;4.90;;;6.40;99.90;;;;;;5002617;28;20481;-90
2021/12/19 07:51:50;;;;;;;20.60;5.50;;;6.60;99.90;;;;;;5036303;28;20422;-90
2021/12/19 07:54:16;;;;;;;17.10;4.93;;;6.60;99.90;;;;;;5019480;28;20041;-88
2021/12/19 07:56:42;;;;;;;20.17;5.25;;;6.70;99.90;;;;;;5035206;28;20076;-90
2021/12/19 07:59:08;;;;;;;22.17;6.03;;;6.80;99.90;;;;;;5018499;28;20053;-90
2021/12/19 08:01:33;;;;;;;27.55;6.35;;;6.60;99.90;;;;;;5018329;28;20102;-89
2021/12/19 08:03:59;;;;;;;21.40;6.55;;;6.80;99.90;;;;;;5018588;28;20041;-93
2021/12/19 08:06:25;;;;;;;20.90;6.60;;;6.70;99.90;;;;;;5019160;28;20057;-90
2021/12/19 08:08:54;;;;;;;27.80;6.55;;;6.60;99.90;;;;;;5019199;28;20076;-91
2021/12/19 08:14:05;;;;;;;25.40;7.10;;;6.60;99.90;;;;;;5035632;28;20505;-90
2021/12/19 08:16:30;;;;;;;24.83;7.70;;;6.60;99.90;;;;;;5024094;28;20037;-89
2021/12/19 08:18:56;;;;;;;24.90;6.95;;;6.70;99.90;;;;;;5019210;28;20055;-91
2021/12/19 08:21:22;;;;;;;29.33;7.35;;;6.60;99.90;;;;;;5018805;28;20394;-90
2021/12/19 08:23:47;;;;;;;23.55;7.32;;;6.70;99.90;;;;;;5002641;28;20076;-90
2021/12/19 08:26:14;;;;;;;29.48;7.18;;;6.60;99.90;;;;;;5002542;28;20045;-91
2021/12/19 08:28:39;;;;;;;17.50;5.75;;;6.90;99.90;;;;;;5002454;28;20483;-90
2021/12/19 08:31:05;;;;;;;18.42;5.53;;;6.70;99.90;;;;;;5002414;28;20076;-91
2021/12/19 08:33:31;;;;;;;18.88;5.45;;;6.70;99.90;;;;;;5018531;28;20049;-90
2021/12/19 08:35:59;;;;;;;16.55;4.60;;;6.70;99.90;;;;;;5002256;28;20081;-90
2021/12/19 08:38:27;;;;;;;12.75;4.22;;;6.80;99.90;;;;;;5002540;28;20053;-90
2021/12/19 08:40:53;;;;;;;16.52;4.65;;;6.70;99.90;;;;;;5002133;28;20052;-90
2021/12/19 08:43:20;;;;;;;16.77;4.95;;;6.70;99.90;;;;;;5018251;28;20057;-89
2021/12/19 08:45:46;;;;;;;17.23;4.40;;;6.70;99.90;;;;;;5018154;28;20407;-89
2021/12/19 08:48:12;;;;;;;20.42;4.95;;;6.70;99.90;;;;;;5018178;28;20037;-89
2021/12/19 08:50:38;;;;;;;19.00;5.30;;;6.70;99.90;;;;;;5001399;28;20041;-90
2021/12/19 08:53:04;;;;;;;18.48;4.95;;;6.80;99.90;;;;;;5018179;28;20046;-89
2021/12/19 08:55:30;;;;;;;19.83;5.47;;;7.00;99.90;;;;;;5001549;28;20053;-94
2021/12/19 08:57:55;;;;;;;20.67;5.32;;;6.70;99.90;;;;;;5017696;28;20053;-92
2021/12/19 09:00:22;;;;;;;23.42;4.63;;;6.70;99.90;;;;;;5017572;28;20403;-90
2021/12/19 09:02:51;;;;;;;23.15;5.40;;;6.80;99.90;;;;;;5017996;28;20051;-91
2021/12/19 09:05:18;;;;;;;17.30;5.13;;;7.00;99.90;;;;;;5001956;28;20056;-89
2021/12/19 09:07:44;;;;;;;23.90;5.50;;;6.80;99.90;;;;;;5017747;28;20050;-90
2021/12/19 09:10:11;;;;;;;22.83;5.72;;;6.80;99.90;;;;;;5017755;28;20099;-90
2021/12/19 09:12:36;;;;;;;27.02;5.95;;;6.70;99.90;;;;;;5017593;28;20067;-90
2021/12/19 09:15:04;;;;;;;19.55;5.03;;;6.80;99.90;;;;;;5001153;28;20045;-93
2021/12/19 09:17:30;;;;;;;22.92;5.65;;;6.80;99.90;;;;;;5001463;28;20045;-93
2021/12/19 09:19:55;;;;;;;17.58;5.20;;;6.80;99.90;;;;;;5002080;28;20045;-91
2021/12/19 09:22:21;;;;;;;16.85;4.75;;;6.70;99.90;;;;;;5001688;28;20056;-92
2021/12/19 09:24:47;;;;;;;22.52;5.57;;;6.80;99.90;;;;;;5001415;28;20061;-91
2021/12/19 09:27:13;;;;;;;18.60;4.70;;;6.80;99.90;;;;;;5001469;28;20084;-91
2021/12/19 09:29:39;;;;;;;22.63;4.57;;;7.10;99.90;;;;;;5000795;28;20111;-92
2021/12/19 09:32:05;;;;;;;20.15;4.32;;;6.90;99.90;;;;;;5001038;28;20086;-91
2021/12/19 09:34:32;;;;;;;19.42;4.53;;;6.90;99.90;;;;;;5001701;28;20407;-90
2021/12/19 09:36:58;;;;;;;24.00;5.43;;;6.90;99.90;;;;;;5001613;28;20139;-92
2021/12/19 09:39:25;;;;;;;31.48;5.35;;;6.90;99.90;;;;;;5001406;28;20115;-91
2021/12/19 09:41:59;;;;;;;18.70;4.50;;;6.80;99.90;;;;;;5017378;28;20052;-91
2021/12/19 09:44:25;;;;;;;13.43;3.95;;;6.90;99.90;;;;;;5017440;28;20041;-91
2021/12/19 09:46:51;;;;;;;20.23;4.43;;;6.90;99.90;;;;;;5001158;28;20396;-90
2021/12/19 09:49:19;;;;;;;24.92;4.03;;;6.90;99.90;;;;;;5001393;28;20048;-92
2021/12/19 09:51:47;;;;;;;19.65;4.43;;;7.20;99.90;;;;;;5001058;28;20049;-92
2021/12/19 09:54:14;;;;;;;14.23;4.05;;;7.00;99.90;;;;;;5017074;28;20392;-91
2021/12/19 09:56:42;;;;;;;19.88;3.78;;;7.00;99.90;;;;;;5017253;28;20458;-91
2021/12/19 09:59:16;;;;;;;17.67;4.05;;;7.00;99.90;;;;;;5017382;28;20140;-90
2021/12/19 10:01:42;;;;;;;20.75;3.97;;;7.00;99.90;;;;;;5017239;28;20087;-92
2021/12/19 10:04:47;;;;;;;20.00;4.82;;;7.00;99.90;;;;;;5017401;28;20042;-91
2021/12/19 10:07:19;;;;;;;14.60;3.78;;;7.20;99.90;;;;;;4942140;28;20050;-90
2021/12/19 10:10:13;;;;;;;13.18;3.60;;;7.10;99.90;;;;;;4966404;28;20112;-92
2021/12/19 10:15:17;;;;;;;18.02;4.10;;;7.30;99.90;;;;;;4996413;28;20530;-90
2021/12/19 10:17:46;;;;;;;21.92;4.13;;;7.10;99.90;;;;;;4980630;28;20057;-92
2021/12/19 10:20:16;;;;;;;20.35;3.80;;;7.20;99.90;;;;;;4980175;28;20038;-92
2021/12/19 10:22:45;;;;;;;19.50;3.42;;;7.20;99.90;;;;;;4980321;28;20050;-92
2021/12/19 10:25:17;;;;;;;14.00;3.45;;;7.30;99.90;;;;;;4980241;28;20097;-92
2021/12/19 10:27:54;;;;;;;12.38;3.35;;;7.20;99.90;;;;;;4996969;28;20060;-90
2021/12/19 10:30:27;;;;;;;17.67;4.10;;;7.30;99.90;;;;;;5007416;28;20058;-92
2021/12/19 10:33:08;;;;;;;14.40;3.80;;;7.20;99.90;;;;;;4996594;28;20049;-92
2021/12/19 10:35:39;;;;;;;17.23;3.78;;;7.30;99.90;;;;;;4995981;28;20045;-92
2021/12/19 10:38:11;;;;;;;11.95;3.40;;;7.50;99.90;;;;;;5003791;28;20107;-92
2021/12/19 10:40:37;;;;;;;13.48;3.40;;;7.30;99.90;;;;;;5034867;28;20110;-91
2021/12/19 10:43:04;;;;;;;13.85;3.70;;;7.30;99.90;;;;;;5039882;28;20402;-91
2021/12/19 10:45:49;;;;;;;13.73;3.78;;;7.30;99.90;;;;;;5037759;28;20052;-92
2021/12/19 10:48:23;;;;;;;18.20;3.55;;;7.30;99.90;;;;;;5023793;28;20176;-91
2021/12/19 10:51:04;;;;;;;12.85;3.88;;;7.40;99.90;;;;;;5019756;28;20044;-92
2021/12/19 10:53:32;;;;;;;;;;;7.30;99.90;;;;;;5037248;28;20049;-92
2021/12/19 10:55:59;;;;;;;16.02;3.03;;;7.20;99.90;;;;;;5019156;28;19925;-92
2021/12/19 10:58:31;;;;;;;15.52;3.25;;;7.30;99.90;;;;;;5018859;28;20053;-92
2021/12/19 11:01:04;;;;;;;20.63;3.70;;;7.30;99.90;;;;;;5036604;28;20044;-91
2021/12/19 11:03:42;;;;;;;12.38;3.28;;;7.40;99.90;;;;;;5019189;28;20144;-91
2021/12/19 11:06:25;;;;;;;13.40;3.58;;;7.40;99.90;;;;;;5019016;28;20109;-90
2021/12/19 11:08:52;;;;;;;13.43;3.90;;;7.50;99.90;;;;;;5019715;28;20087;-91
2021/12/19 11:12:05;;;;;;;19.38;3.33;;;7.40;99.90;;;;;;5019678;28;20495;-92
2021/12/19 11:14:39;;;;;;;16.10;3.35;;;7.40;99.90;;;;;;5036061;28;20053;-90
2021/12/19 11:17:21;;;;;;;35.78;5.78;;;7.40;99.90;;;;;;5019927;28;20060;-92
2021/12/19 11:19:48;;;;;;;13.55;3.17;;;7.50;99.90;;;;;;5035929;28;20132;-92
2021/12/19 11:22:23;;;;;;;12.85;3.97;;;7.50;99.90;;;;;;5035993;28;20056;-91
2021/12/19 11:28:43;;;;;;;13.32;3.05;;;7.50;99.90;;;;;;5053671;28;20040;-91
2021/12/19 11:31:10;;;;;;;13.93;3.42;;;7.50;99.90;;;;;;5038916;28;20052;-92
2021/12/19 11:33:56;;;;;;;16.77;3.50;;;7.50;99.90;;;;;;5055280;28;20048;-90
2021/12/19 11:36:23;;;;;;;14.82;3.22;;;7.60;99.90;;;;;;5040421;28;20144;-92
2021/12/19 11:38:49;;;;;;;13.68;3.60;;;7.60;99.90;;;;;;5036340;28;20052;-92
2021/12/19 11:47:38;;;;;;;21.10;3.95;;;7.50;99.90;;;;;;5035520;28;20076;-92
2021/12/19 11:50:22;;;;;;;19.02;3.85;;;7.50;99.90;;;;;;5019478;28;20063;-89
2021/12/19 11:52:50;;;;;;;18.30;3.95;;;7.50;99.90;;;;;;5052314;28;20049;-91
2021/12/19 11:55:22;;;;;;;25.25;4.72;;;7.70;99.90;;;;;;5035614;28;20056;-90
2021/12/19 11:58:09;;;;;;;18.10;4.93;;;7.50;99.90;;;;;;5020027;28;20049;-91
2021/12/19 12:00:56;;;;;;;20.65;6.57;;;7.50;99.90;;;;;;5019303;28;20045;-92
2021/12/19 12:03:26;;;;;;;13.00;4.00;;;7.50;99.90;;;;;;5019214;28;20060;-94
2021/12/19 12:06:17;;;;;;;11.40;3.83;;;7.60;99.90;;;;;;5019115;28;20144;-93
2021/12/19 12:09:23;;;;;;;18.38;5.22;;;7.80;99.90;;;;;;4995069;28;20184;-91
2021/12/19 12:12:40;;;;;;;21.00;4.70;;;7.50;99.90;;;;;;4937486;29;20091;-91
2021/12/19 12:15:08;;;;;;;17.08;3.42;;;7.50;99.90;;;;;;4936895;29;20122;-90
2021/12/19 12:17:40;;;;;;;12.73;3.13;;;7.50;99.90;;;;;;4938510;29;20594;-94
2021/12/19 12:20:15;;;;;;;18.08;3.00;;;7.50;99.90;;;;;;4941213;29;20059;-93
2021/12/19 12:22:51;;;;;;;15.90;3.42;;;7.50;99.90;;;;;;4941235;29;20047;-91
2021/12/19 12:25:28;;;;;;;15.65;4.10;;;7.60;99.90;;;;;;4940656;29;20057;-93
2021/12/19 12:28:04;;;;;;;14.77;3.00;;;7.70;99.90;;;;;;4940991;29;20055;-93
2021/12/19 12:30:49;;;;;;;16.25;3.20;;;7.50;99.90;;;;;;4940034;29;20609;-91
2021/12/19 12:33:18;;;;;;;16.30;3.25;;;7.50;99.90;;;;;;4940741;29;20094;-92
2021/12/19 12:35:50;;;;;;;12.63;2.92;;;7.80;99.90;;;;;;4940795;29;20059;-93
2021/12/19 12:38:16;;;;;;;16.77;3.15;;;7.50;99.90;;;;;;4953145;28;20489;-92
2021/12/19 12:41:09;;;;;;;14.07;2.63;;;7.70;99.90;;;;;;4959885;28;20058;-92
2021/12/19 12:43:37;;;;;;;11.55;2.95;;;7.60;99.90;;;;;;4959972;28;20047;-91
2021/12/19 12:46:13;;;;;;;14.60;2.70;;;7.60;99.90;;;;;;4984259;28;20049;-91
2021/12/19 12:48:42;;;;;;;15.65;3.15;;;7.60;99.90;;;;;;5058398;28;20497;-90
2021/12/19 12:51:28;;;;;;;14.32;2.63;;;7.70;99.90;;;;;;5058363;28;20052;-90
2021/12/19 12:53:58;;;;;;;14.18;2.67;;;7.60;99.90;;;;;;5042222;28;20044;-91
2021/12/19 12:57:01;;;;;;;20.20;3.47;;;7.50;99.90;;;;;;5059017;28;20051;-91
2021/12/19 12:59:29;;;;;;;13.43;2.35;;;7.50;99.90;;;;;;5058378;28;20056;-92
2021/12/19 13:04:53;;;;;;;21.42;2.90;;;7.50;99.90;;;;;;4994993;28;20071;-90
2021/12/19 13:07:21;;;;;;;13.30;2.67;;;7.50;99.90;;;;;;4975430;28;20045;-89
2021/12/19 13:09:57;;;;;;;17.85;3.20;;;7.40;99.90;;;;;;4977021;28;20065;-88
2021/12/19 13:16:04;;;;;;;12.60;2.70;;;7.50;99.90;;;;;;4994152;28;20166;-90
2021/12/19 13:18:30;;;;;;;24.77;4.30;;;7.50;99.90;;;;;;4958838;28;20055;-90
2021/12/19 13:21:02;;;;;;;20.90;2.95;;;7.40;99.90;;;;;;4974726;28;20047;-95
2021/12/19 13:23:28;;;;;;;17.40;3.50;;;7.50;99.90;;;;;;4991532;28;20141;-90
2021/12/19 13:26:01;;;;;;;15.77;3.75;;;7.40;99.90;;;;;;4959137;28;20500;-93
2021/12/19 13:28:27;;;;;;;12.07;3.30;;;7.40;99.90;;;;;;4957312;28;20117;-92
2021/12/19 13:30:56;;;;;;;15.20;2.75;;;7.40;99.90;;;;;;4974338;28;20059;-91
2021/12/19 13:33:22;;;;;;;19.83;2.97;;;7.40;99.90;;;;;;4975028;28;20050;-91
2021/12/19 13:35:53;;;;;;;36.28;15.20;;;7.40;99.90;;;;;;4942389;28;20054;-95
2021/12/19 13:38:20;;;;;;;;;;;7.20;99.90;;;;;;4958188;28;20086;-91
2021/12/19 13:40:57;;;;;;;18.20;2.70;;;7.40;99.90;;;;;;4978692;28;20286;-92
2021/12/19 13:43:29;;;;;;;12.15;3.28;;;7.40;99.90;;;;;;5021061;28;20055;-92
2021/12/19 13:45:56;;;;;;;17.23;3.38;;;7.40;99.90;;;;;;5021480;28;20465;-91
2021/12/19 13:48:29;;;;;;;18.50;2.55;;;7.60;99.90;;;;;;5037796;28;20049;-93
2021/12/19 13:51:00;;;;;;;16.05;3.45;;;7.60;99.90;;;;;;5019771;28;20073;-92
2021/12/19 13:53:28;;;;;;;17.63;2.80;;;7.40;99.90;;;;;;5021133;28;20056;-92
2021/12/19 13:56:17;;;;;;;14.80;2.97;;;7.40;99.90;;;;;;5020461;28;20083;-91
2021/12/19 13:58:55;;;;;;;18.70;3.20;;;7.60;99.90;;;;;;5019400;28;20052;-91
2021/12/19 14:01:36;;;;;;;26.90;4.00;;;7.40;99.90;;;;;;5020038;28;20147;-93
2021/12/19 14:04:16;;;;;;;19.25;3.15;;;7.40;99.90;;;;;;5020485;28;20060;-90
2021/12/19 14:06:44;;;;;;;19.85;3.60;;;7.40;99.90;;;;;;5029932;28;20037;-89
2021/12/19 14:09:14;;;;;;;13.77;3.00;;;7.40;99.90;;;;;;5035285;28;20086;-90
2021/12/19 14:15:11;;;;;;;20.00;3.47;;;7.40;99.90;;;;;;5037573;28;20191;-90
2021/12/19 14:18:26;;;;;;;21.85;3.65;;;7.40;99.90;;;;;;5038356;28;20143;-91
2021/12/19 14:20:52;;;;;;;23.67;4.32;;;7.40;99.90;;;;;;5021073;28;20057;-92
2021/12/19 14:23:19;;;;;;;31.20;7.07;;;7.40;99.90;;;;;;5037582;28;20094;-91
2021/12/19 14:25:48;;;;;;;30.60;7.93;;;7.40;99.90;;;;;;5021350;28;20049;-91
2021/12/19 14:28:22;;;;;;;22.52;7.75;;;7.40;99.90;;;;;;5037696;28;20049;-90